sensor_id;sensor_type;location;lat;lon;timestamp;temperature;humidity
69944;DHT22;57257;48.408;-4.498;2024-03-02T00:01:04;9.54;68.31
69944;DHT22;57257;48.408;-4.498;2024-03-02T00:03:29;9.58;68.30
69944;DHT22;57257;48.408;-4.498;2024-03-02T00:05:55;9.62;68.35
69944;DHT22;57257;48.408;-4.498;2024-03-02T00:08:25;9.59;68.29
69944;DHT22;57257;48.408;-4.498;2024-03-02T00:10:51;9.59;68.30
69944;DHT22;57257;48.408;-4.498;2024-03-02T00:13:21;9.61;68.20
69944;DHT22;57257;48.408;-4.498;2024-03-02T00:15:54;9.62;67.92
69944;DHT22;57257;48.408;-4.498;2024-03-02T00:18:30;9.62;67.83
69944;DHT22;57257;48.408;-4.498;2024-03-02T00:20:56;9.65;67.73
69944;DHT22;57257;48.408;-4.498;2024-03-02T00:23:22;9.68;67.51
69944;DHT22;57257;48.408;-4.498;2024-03-02T00:25:50;9.68;67.11
69944;DHT22;57257;48.408;-4.498;2024-03-02T00:28:34;9.61;66.94
69944;DHT22;57257;48.408;-4.498;2024-03-02T00:31:13;9.58;66.31
69944;DHT22;57257;48.408;-4.498;2024-03-02T00:33:40;9.54;66.20
69944;DHT22;57257;48.408;-4.498;2024-03-02T00:36:06;9.54;66.20
69944;DHT22;57257;48.408;-4.498;2024-03-02T00:38:34;9.52;66.26
69944;DHT22;57257;48.408;-4.498;2024-03-02T00:41:06;9.52;66.27
69944;DHT22;57257;48.408;-4.498;2024-03-02T00:43:42;9.54;66.16
69944;DHT22;57257;48.408;-4.498;2024-03-02T00:46:12;9.52;66.23
69944;DHT22;57257;48.408;-4.498;2024-03-02T00:48:39;9.54;66.45
69944;DHT22;57257;48.408;-4.498;2024-03-02T00:51:04;9.54;66.61
69944;DHT22;57257;48.408;-4.498;2024-03-02T00:53:31;9.54;66.51
69944;DHT22;57257;48.408;-4.498;2024-03-02T00:55:57;9.51;66.69
69944;DHT22;57257;48.408;-4.498;2024-03-02T00:58:23;9.51;66.78
69944;DHT22;57257;48.408;-4.498;2024-03-02T01:00:49;9.51;66.88
69944;DHT22;57257;48.408;-4.498;2024-03-02T01:03:15;9.49;66.92
69944;DHT22;57257;48.408;-4.498;2024-03-02T01:05:41;9.48;66.97
69944;DHT22;57257;48.408;-4.498;2024-03-02T01:08:08;9.48;67.18
69944;DHT22;57257;48.408;-4.498;2024-03-02T01:10:33;9.45;66.93
69944;DHT22;57257;48.408;-4.498;2024-03-02T01:12:58;9.44;66.98
69944;DHT22;57257;48.408;-4.498;2024-03-02T01:15:24;9.42;66.90
69944;DHT22;57257;48.408;-4.498;2024-03-02T01:17:49;9.44;66.79
69944;DHT22;57257;48.408;-4.498;2024-03-02T01:20:15;9.39;66.80
69944;DHT22;57257;48.408;-4.498;2024-03-02T01:22:40;9.42;66.82
69944;DHT22;57257;48.408;-4.498;2024-03-02T01:25:06;9.41;66.78
69944;DHT22;57257;48.408;-4.498;2024-03-02T01:27:33;9.44;66.74
69944;DHT22;57257;48.408;-4.498;2024-03-02T01:29:59;9.49;66.68
69944;DHT22;57257;48.408;-4.498;2024-03-02T01:32:25;9.46;66.66
69944;DHT22;57257;48.408;-4.498;2024-03-02T01:34:50;9.52;66.51
69944;DHT22;57257;48.408;-4.498;2024-03-02T01:37:16;9.52;66.60
69944;DHT22;57257;48.408;-4.498;2024-03-02T01:39:41;9.49;66.53
69944;DHT22;57257;48.408;-4.498;2024-03-02T01:42:06;9.52;66.23
69944;DHT22;57257;48.408;-4.498;2024-03-02T01:44:32;9.51;66.22
69944;DHT22;57257;48.408;-4.498;2024-03-02T01:46:57;9.51;66.17
69944;DHT22;57257;48.408;-4.498;2024-03-02T01:49:23;9.54;66.04
69944;DHT22;57257;48.408;-4.498;2024-03-02T01:51:48;9.51;66.07
69944;DHT22;57257;48.408;-4.498;2024-03-02T01:54:14;9.56;66.06
69944;DHT22;57257;48.408;-4.498;2024-03-02T01:56:39;9.58;65.91
69944;DHT22;57257;48.408;-4.498;2024-03-02T01:59:05;9.58;66.07
69944;DHT22;57257;48.408;-4.498;2024-03-02T02:01:30;9.52;66.10
69944;DHT22;57257;48.408;-4.498;2024-03-02T02:03:56;9.39;66.52
69944;DHT22;57257;48.408;-4.498;2024-03-02T02:06:21;9.30;66.85
69944;DHT22;57257;48.408;-4.498;2024-03-02T02:08:47;9.28;67.48
69944;DHT22;57257;48.408;-4.498;2024-03-02T02:11:16;9.30;67.24
69944;DHT22;57257;48.408;-4.498;2024-03-02T02:13:41;9.30;67.35
69944;DHT22;57257;48.408;-4.498;2024-03-02T02:16:08;9.27;67.50
69944;DHT22;57257;48.408;-4.498;2024-03-02T02:18:34;9.20;67.78
69944;DHT22;57257;48.408;-4.498;2024-03-02T02:21:01;9.25;67.88
69944;DHT22;57257;48.408;-4.498;2024-03-02T02:23:26;9.27;67.90
69944;DHT22;57257;48.408;-4.498;2024-03-02T02:25:52;9.30;67.87
69944;DHT22;57257;48.408;-4.498;2024-03-02T02:28:17;9.34;68.03
69944;DHT22;57257;48.408;-4.498;2024-03-02T02:30:42;9.35;68.11
69944;DHT22;57257;48.408;-4.498;2024-03-02T02:33:08;9.36;67.89
69944;DHT22;57257;48.408;-4.498;2024-03-02T02:35:34;9.39;67.83
69944;DHT22;57257;48.408;-4.498;2024-03-02T02:37:59;9.38;67.72
69944;DHT22;57257;48.408;-4.498;2024-03-02T02:40:26;9.38;67.54
69944;DHT22;57257;48.408;-4.498;2024-03-02T02:42:51;9.34;67.27
69944;DHT22;57257;48.408;-4.498;2024-03-02T02:45:17;9.34;67.21
69944;DHT22;57257;48.408;-4.498;2024-03-02T02:47:43;9.32;67.29
69944;DHT22;57257;48.408;-4.498;2024-03-02T02:50:10;9.30;67.30
69944;DHT22;57257;48.408;-4.498;2024-03-02T02:52:37;9.28;67.32
69944;DHT22;57257;48.408;-4.498;2024-03-02T02:55:06;9.27;67.32
69944;DHT22;57257;48.408;-4.498;2024-03-02T02:57:35;9.24;67.12
69944;DHT22;57257;48.408;-4.498;2024-03-02T03:00:05;9.24;67.06
69944;DHT22;57257;48.408;-4.498;2024-03-02T03:02:35;9.18;67.35
69944;DHT22;57257;48.408;-4.498;2024-03-02T03:05:01;9.21;67.34
69944;DHT22;57257;48.408;-4.498;2024-03-02T03:07:26;9.17;67.29
69944;DHT22;57257;48.408;-4.498;2024-03-02T03:09:51;9.13;67.26
69944;DHT22;57257;48.408;-4.498;2024-03-02T03:12:17;9.05;67.55
69944;DHT22;57257;48.408;-4.498;2024-03-02T03:14:42;9.05;67.61
69944;DHT22;57257;48.408;-4.498;2024-03-02T03:17:07;9.05;67.70
69944;DHT22;57257;48.408;-4.498;2024-03-02T03:19:33;9.07;67.66
69944;DHT22;57257;48.408;-4.498;2024-03-02T03:21:58;9.11;67.80
69944;DHT22;57257;48.408;-4.498;2024-03-02T03:24:24;9.13;67.77
69944;DHT22;57257;48.408;-4.498;2024-03-02T03:26:49;9.14;67.72
69944;DHT22;57257;48.408;-4.498;2024-03-02T03:29:15;9.13;67.74
69944;DHT22;57257;48.408;-4.498;2024-03-02T03:31:40;9.11;67.73
69944;DHT22;57257;48.408;-4.498;2024-03-02T03:34:05;9.10;67.83
69944;DHT22;57257;48.408;-4.498;2024-03-02T03:36:31;9.08;67.88
69944;DHT22;57257;48.408;-4.498;2024-03-02T03:38:56;9.11;67.91
69944;DHT22;57257;48.408;-4.498;2024-03-02T03:41:22;9.13;67.91
69944;DHT22;57257;48.408;-4.498;2024-03-02T03:43:48;9.18;67.84
69944;DHT22;57257;48.408;-4.498;2024-03-02T03:46:13;9.23;67.72
69944;DHT22;57257;48.408;-4.498;2024-03-02T03:48:38;9.24;67.79
69944;DHT22;57257;48.408;-4.498;2024-03-02T03:51:04;9.30;67.74
69944;DHT22;57257;48.408;-4.498;2024-03-02T03:53:29;9.28;67.71
69944;DHT22;57257;48.408;-4.498;2024-03-02T03:55:55;9.31;67.97
69944;DHT22;57257;48.408;-4.498;2024-03-02T03:58:20;9.35;68.03
69944;DHT22;57257;48.408;-4.498;2024-03-02T04:00:46;9.34;68.19
69944;DHT22;57257;48.408;-4.498;2024-03-02T04:03:11;9.35;68.18
69944;DHT22;57257;48.408;-4.498;2024-03-02T04:05:37;9.38;68.20
69944;DHT22;57257;48.408;-4.498;2024-03-02T04:08:03;9.35;68.16
69944;DHT22;57257;48.408;-4.498;2024-03-02T04:10:29;9.38;68.24
69944;DHT22;57257;48.408;-4.498;2024-03-02T04:12:55;9.38;68.08
69944;DHT22;57257;48.408;-4.498;2024-03-02T04:15:21;9.42;67.98
69944;DHT22;57257;48.408;-4.498;2024-03-02T04:17:48;9.39;68.04
69944;DHT22;57257;48.408;-4.498;2024-03-02T04:20:13;9.41;67.83
69944;DHT22;57257;48.408;-4.498;2024-03-02T04:22:39;9.35;67.74
69944;DHT22;57257;48.408;-4.498;2024-03-02T04:25:04;9.38;67.52
69944;DHT22;57257;48.408;-4.498;2024-03-02T04:27:30;9.36;67.40
69944;DHT22;57257;48.408;-4.498;2024-03-02T04:29:57;9.35;67.32
69944;DHT22;57257;48.408;-4.498;2024-03-02T04:32:22;9.34;67.37
69944;DHT22;57257;48.408;-4.498;2024-03-02T04:34:48;9.35;67.32
69944;DHT22;57257;48.408;-4.498;2024-03-02T04:37:13;9.36;67.29
69944;DHT22;57257;48.408;-4.498;2024-03-02T04:39:39;9.39;67.30
69944;DHT22;57257;48.408;-4.498;2024-03-02T04:42:05;9.38;67.32
69944;DHT22;57257;48.408;-4.498;2024-03-02T04:44:30;9.36;67.41
69944;DHT22;57257;48.408;-4.498;2024-03-02T04:46:55;9.34;67.44
69944;DHT22;57257;48.408;-4.498;2024-03-02T04:49:21;9.36;67.48
69944;DHT22;57257;48.408;-4.498;2024-03-02T04:51:46;9.34;67.52
69944;DHT22;57257;48.408;-4.498;2024-03-02T04:54:12;9.32;67.72
69944;DHT22;57257;48.408;-4.498;2024-03-02T04:56:39;9.36;67.88
69944;DHT22;57257;48.408;-4.498;2024-03-02T04:59:04;9.38;67.98
69944;DHT22;57257;48.408;-4.498;2024-03-02T05:01:30;9.39;68.08
69944;DHT22;57257;48.408;-4.498;2024-03-02T05:03:55;9.41;68.05
69944;DHT22;57257;48.408;-4.498;2024-03-02T05:06:21;9.35;67.59
69944;DHT22;57257;48.408;-4.498;2024-03-02T05:08:47;9.31;67.97
69944;DHT22;57257;48.408;-4.498;2024-03-02T05:11:13;9.24;68.03
69944;DHT22;57257;48.408;-4.498;2024-03-02T05:13:57;9.25;67.98
69944;DHT22;57257;48.408;-4.498;2024-03-02T05:16:22;9.31;68.03
69944;DHT22;57257;48.408;-4.498;2024-03-02T05:18:47;9.35;68.07
69944;DHT22;57257;48.408;-4.498;2024-03-02T05:21:13;9.36;67.86
69944;DHT22;57257;48.408;-4.498;2024-03-02T05:23:38;9.36;67.63
69944;DHT22;57257;48.408;-4.498;2024-03-02T05:26:04;9.34;67.80
69944;DHT22;57257;48.408;-4.498;2024-03-02T05:28:29;9.32;67.96
69944;DHT22;57257;48.408;-4.498;2024-03-02T05:30:54;9.34;68.13
69944;DHT22;57257;48.408;-4.498;2024-03-02T05:33:20;9.38;68.19
69944;DHT22;57257;48.408;-4.498;2024-03-02T05:35:47;9.39;68.21
69944;DHT22;57257;48.408;-4.498;2024-03-02T05:38:15;9.42;68.07
69944;DHT22;57257;48.408;-4.498;2024-03-02T05:40:41;9.44;68.07
69944;DHT22;57257;48.408;-4.498;2024-03-02T05:43:06;9.44;68.04
69944;DHT22;57257;48.408;-4.498;2024-03-02T05:45:32;9.44;67.98
69944;DHT22;57257;48.408;-4.498;2024-03-02T05:47:57;9.45;68.03
69944;DHT22;57257;48.408;-4.498;2024-03-02T05:50:23;9.46;67.88
69944;DHT22;57257;48.408;-4.498;2024-03-02T05:52:48;9.49;68.00
69944;DHT22;57257;48.408;-4.498;2024-03-02T05:55:14;9.51;68.11
69944;DHT22;57257;48.408;-4.498;2024-03-02T05:57:40;9.52;68.01
69944;DHT22;57257;48.408;-4.498;2024-03-02T06:00:08;9.52;68.10
69944;DHT22;57257;48.408;-4.498;2024-03-02T06:02:34;9.54;68.22
69944;DHT22;57257;48.408;-4.498;2024-03-02T06:05:00;9.56;68.31
69944;DHT22;57257;48.408;-4.498;2024-03-02T06:07:25;9.59;68.39
69944;DHT22;57257;48.408;-4.498;2024-03-02T06:09:51;9.59;68.34
69944;DHT22;57257;48.408;-4.498;2024-03-02T06:12:18;9.63;68.35
69944;DHT22;57257;48.408;-4.498;2024-03-02T06:14:44;9.62;68.38
69944;DHT22;57257;48.408;-4.498;2024-03-02T06:17:09;9.59;68.45
69944;DHT22;57257;48.408;-4.498;2024-03-02T06:19:34;9.55;68.48
69944;DHT22;57257;48.408;-4.498;2024-03-02T06:22:00;9.54;68.55
69944;DHT22;57257;48.408;-4.498;2024-03-02T06:24:25;9.54;68.55
69944;DHT22;57257;48.408;-4.498;2024-03-02T06:26:51;9.52;68.54
69944;DHT22;57257;48.408;-4.498;2024-03-02T06:29:17;9.48;68.37
69944;DHT22;57257;48.408;-4.498;2024-03-02T06:31:42;9.48;68.29
69944;DHT22;57257;48.408;-4.498;2024-03-02T06:34:08;9.46;68.32
69944;DHT22;57257;48.408;-4.498;2024-03-02T06:36:34;9.42;68.25
69944;DHT22;57257;48.408;-4.498;2024-03-02T06:38:59;9.41;68.14
69944;DHT22;57257;48.408;-4.498;2024-03-02T06:41:25;9.38;68.01
69944;DHT22;57257;48.408;-4.498;2024-03-02T06:43:51;9.36;67.86
69944;DHT22;57257;48.408;-4.498;2024-03-02T06:46:24;9.32;67.84
69944;DHT22;57257;48.408;-4.498;2024-03-02T06:48:50;9.31;67.75
69944;DHT22;57257;48.408;-4.498;2024-03-02T06:51:15;9.25;67.63
69944;DHT22;57257;48.408;-4.498;2024-03-02T06:53:41;9.23;67.67
69944;DHT22;57257;48.408;-4.498;2024-03-02T06:56:07;9.21;67.67
69944;DHT22;57257;48.408;-4.498;2024-03-02T06:58:34;9.20;67.56
69944;DHT22;57257;48.408;-4.498;2024-03-02T07:00:59;9.18;67.52
69944;DHT22;57257;48.408;-4.498;2024-03-02T07:03:27;9.17;67.37
69944;DHT22;57257;48.408;-4.498;2024-03-02T07:05:53;9.13;67.42
69944;DHT22;57257;48.408;-4.498;2024-03-02T07:08:19;9.11;67.37
69944;DHT22;57257;48.408;-4.498;2024-03-02T07:10:44;9.10;67.36
69944;DHT22;57257;48.408;-4.498;2024-03-02T07:13:09;9.11;67.33
69944;DHT22;57257;48.408;-4.498;2024-03-02T07:15:35;9.10;67.25
69944;DHT22;57257;48.408;-4.498;2024-03-02T07:18:10;9.10;67.00
69944;DHT22;57257;48.408;-4.498;2024-03-02T07:20:35;9.08;67.17
69944;DHT22;57257;48.408;-4.498;2024-03-02T07:23:00;9.11;67.22
69944;DHT22;57257;48.408;-4.498;2024-03-02T07:25:26;9.20;67.23
69944;DHT22;57257;48.408;-4.498;2024-03-02T07:27:51;9.28;67.06
69944;DHT22;57257;48.408;-4.498;2024-03-02T07:30:16;9.42;67.09
69944;DHT22;57257;48.408;-4.498;2024-03-02T07:32:42;9.55;67.01
69944;DHT22;57257;48.408;-4.498;2024-03-02T07:35:13;9.69;66.66
69944;DHT22;57257;48.408;-4.498;2024-03-02T07:37:41;9.75;66.56
69944;DHT22;57257;48.408;-4.498;2024-03-02T07:40:06;9.83;66.29
69944;DHT22;57257;48.408;-4.498;2024-03-02T07:42:35;9.92;66.29
69944;DHT22;57257;48.408;-4.498;2024-03-02T07:45:00;10.03;66.13
69944;DHT22;57257;48.408;-4.498;2024-03-02T07:47:25;10.21;66.17
69944;DHT22;57257;48.408;-4.498;2024-03-02T07:49:51;10.40;65.95
69944;DHT22;57257;48.408;-4.498;2024-03-02T07:52:16;10.54;65.55
69944;DHT22;57257;48.408;-4.498;2024-03-02T07:54:42;10.67;65.35
69944;DHT22;57257;48.408;-4.498;2024-03-02T07:57:07;10.78;65.20
69944;DHT22;57257;48.408;-4.498;2024-03-02T07:59:33;10.97;65.08
69944;DHT22;57257;48.408;-4.498;2024-03-02T08:01:59;11.11;64.83
69944;DHT22;57257;48.408;-4.498;2024-03-02T08:04:24;11.31;64.25
69944;DHT22;57257;48.408;-4.498;2024-03-02T08:06:50;11.42;63.44
69944;DHT22;57257;48.408;-4.498;2024-03-02T08:09:15;11.55;63.45
69944;DHT22;57257;48.408;-4.498;2024-03-02T08:11:40;11.66;63.87
69944;DHT22;57257;48.408;-4.498;2024-03-02T08:14:06;11.78;63.50
69944;DHT22;57257;48.408;-4.498;2024-03-02T08:16:31;11.96;63.09
69944;DHT22;57257;48.408;-4.498;2024-03-02T08:18:58;12.13;62.73
69944;DHT22;57257;48.408;-4.498;2024-03-02T08:21:24;12.24;62.18
69944;DHT22;57257;48.408;-4.498;2024-03-02T08:23:50;12.30;62.20
69944;DHT22;57257;48.408;-4.498;2024-03-02T08:26:15;12.41;61.25
69944;DHT22;57257;48.408;-4.498;2024-03-02T08:28:40;12.57;61.05
69944;DHT22;57257;48.408;-4.498;2024-03-02T08:31:06;12.69;60.10
69944;DHT22;57257;48.408;-4.498;2024-03-02T08:33:32;12.81;59.57
69944;DHT22;57257;48.408;-4.498;2024-03-02T08:35:58;12.95;59.98
69944;DHT22;57257;48.408;-4.498;2024-03-02T08:38:24;13.11;59.48
69944;DHT22;57257;48.408;-4.498;2024-03-02T08:40:49;13.28;59.44
69944;DHT22;57257;48.408;-4.498;2024-03-02T08:43:15;13.36;59.27
69944;DHT22;57257;48.408;-4.498;2024-03-02T08:45:41;13.46;58.00
69944;DHT22;57257;48.408;-4.498;2024-03-02T08:48:07;13.67;58.79
69944;DHT22;57257;48.408;-4.498;2024-03-02T08:50:36;13.90;58.18
69944;DHT22;57257;48.408;-4.498;2024-03-02T08:53:03;14.03;57.54
69944;DHT22;57257;48.408;-4.498;2024-03-02T08:55:29;14.10;56.57
69944;DHT22;57257;48.408;-4.498;2024-03-02T08:57:55;14.14;56.99
69944;DHT22;57257;48.408;-4.498;2024-03-02T09:00:21;14.20;57.65
69944;DHT22;57257;48.408;-4.498;2024-03-02T09:02:46;14.20;56.88
69944;DHT22;57257;48.408;-4.498;2024-03-02T09:05:13;14.27;56.28
69944;DHT22;57257;48.408;-4.498;2024-03-02T09:07:38;14.33;56.42
69944;DHT22;57257;48.408;-4.498;2024-03-02T09:10:05;14.55;56.38
69944;DHT22;57257;48.408;-4.498;2024-03-02T09:12:31;14.68;56.00
69944;DHT22;57257;48.408;-4.498;2024-03-02T09:14:56;14.65;54.93
69944;DHT22;57257;48.408;-4.498;2024-03-02T09:17:22;14.65;55.15
69944;DHT22;57257;48.408;-4.498;2024-03-02T09:19:48;14.71;55.33
69944;DHT22;57257;48.408;-4.498;2024-03-02T09:22:13;14.72;55.65
69944;DHT22;57257;48.408;-4.498;2024-03-02T09:24:39;14.71;55.02
69944;DHT22;57257;48.408;-4.498;2024-03-02T09:27:04;14.75;55.05
69944;DHT22;57257;48.408;-4.498;2024-03-02T09:29:31;14.79;54.68
69944;DHT22;57257;48.408;-4.498;2024-03-02T09:31:56;14.87;54.31
69944;DHT22;57257;48.408;-4.498;2024-03-02T09:34:21;14.95;54.44
69944;DHT22;57257;48.408;-4.498;2024-03-02T09:36:47;15.08;54.87
69944;DHT22;57257;48.408;-4.498;2024-03-02T09:39:13;15.16;53.61
69944;DHT22;57257;48.408;-4.498;2024-03-02T09:41:39;14.96;53.99
69944;DHT22;57257;48.408;-4.498;2024-03-02T09:44:05;14.79;54.29
69944;DHT22;57257;48.408;-4.498;2024-03-02T09:46:31;14.72;53.26
69944;DHT22;57257;48.408;-4.498;2024-03-02T09:48:56;14.65;53.79
69944;DHT22;57257;48.408;-4.498;2024-03-02T09:51:22;14.42;53.46
69944;DHT22;57257;48.408;-4.498;2024-03-02T09:53:48;14.16;53.60
69944;DHT22;57257;48.408;-4.498;2024-03-02T09:56:14;13.93;53.60
69944;DHT22;57257;48.408;-4.498;2024-03-02T09:58:41;13.66;53.94
69944;DHT22;57257;48.408;-4.498;2024-03-02T10:01:07;13.50;54.56
69944;DHT22;57257;48.408;-4.498;2024-03-02T10:03:33;13.32;54.64
69944;DHT22;57257;48.408;-4.498;2024-03-02T10:06:24;13.45;55.34
69944;DHT22;57257;48.408;-4.498;2024-03-02T10:08:50;13.67;55.39
69944;DHT22;57257;48.408;-4.498;2024-03-02T10:11:30;13.79;54.15
69944;DHT22;57257;48.408;-4.498;2024-03-02T10:14:11;13.79;54.37
69944;DHT22;57257;48.408;-4.498;2024-03-02T10:16:39;13.91;54.43
69944;DHT22;57257;48.408;-4.498;2024-03-02T10:19:23;14.07;54.09
69944;DHT22;57257;48.408;-4.498;2024-03-02T10:21:53;14.20;54.16
69944;DHT22;57257;48.408;-4.498;2024-03-02T10:24:20;14.34;53.83
69944;DHT22;57257;48.408;-4.498;2024-03-02T10:26:46;14.37;53.42
69944;DHT22;57257;48.408;-4.498;2024-03-02T10:29:12;14.31;53.01
69944;DHT22;57257;48.408;-4.498;2024-03-02T10:31:40;14.40;53.85
69944;DHT22;57257;48.408;-4.498;2024-03-02T10:34:06;14.49;53.62
69944;DHT22;57257;48.408;-4.498;2024-03-02T10:36:35;14.64;53.92
69944;DHT22;57257;48.408;-4.498;2024-03-02T10:39:04;14.61;53.52
69944;DHT22;57257;48.408;-4.498;2024-03-02T10:41:33;14.38;53.18
69944;DHT22;57257;48.408;-4.498;2024-03-02T10:44:02;14.17;53.27
69944;DHT22;57257;48.408;-4.498;2024-03-02T10:46:29;13.90;53.79
69944;DHT22;57257;48.408;-4.498;2024-03-02T10:48:56;13.62;54.40
69944;DHT22;57257;48.408;-4.498;2024-03-02T10:51:27;13.43;55.00
69944;DHT22;57257;48.408;-4.498;2024-03-02T10:53:54;13.34;55.55
69944;DHT22;57257;48.408;-4.498;2024-03-02T10:56:28;13.16;55.59
69944;DHT22;57257;48.408;-4.498;2024-03-02T10:59:24;12.97;55.90
69944;DHT22;57257;48.408;-4.498;2024-03-02T11:01:57;12.77;56.18
69944;DHT22;57257;48.408;-4.498;2024-03-02T11:04:25;12.65;56.52
69944;DHT22;57257;48.408;-4.498;2024-03-02T11:06:51;12.61;57.75
69944;DHT22;57257;48.408;-4.498;2024-03-02T11:09:22;12.60;57.45
69944;DHT22;57257;48.408;-4.498;2024-03-02T11:12:00;12.55;57.23
69944;DHT22;57257;48.408;-4.498;2024-03-02T11:14:30;12.48;57.62
69944;DHT22;57257;48.408;-4.498;2024-03-02T11:16:55;12.47;57.85
69944;DHT22;57257;48.408;-4.498;2024-03-02T11:19:21;12.51;58.37
69944;DHT22;57257;48.408;-4.498;2024-03-02T11:21:47;12.71;58.83
69944;DHT22;57257;48.408;-4.498;2024-03-02T11:26:52;13.01;58.79
69944;DHT22;57257;48.408;-4.498;2024-03-02T11:34:46;13.40;58.48
69944;DHT22;57257;48.408;-4.498;2024-03-02T11:37:15;13.62;58.61
69944;DHT22;57257;48.408;-4.498;2024-03-02T11:39:43;13.79;57.85
69944;DHT22;57257;48.408;-4.498;2024-03-02T11:42:09;13.89;56.83
69944;DHT22;57257;48.408;-4.498;2024-03-02T11:44:36;13.93;57.25
69944;DHT22;57257;48.408;-4.498;2024-03-02T11:47:06;13.97;56.92
69944;DHT22;57257;48.408;-4.498;2024-03-02T11:49:45;13.90;56.42
69944;DHT22;57257;48.408;-4.498;2024-03-02T11:52:12;13.73;56.22
69944;DHT22;57257;48.408;-4.498;2024-03-02T11:54:39;13.66;56.94
69944;DHT22;57257;48.408;-4.498;2024-03-02T11:57:06;13.69;57.00
69944;DHT22;57257;48.408;-4.498;2024-03-02T11:59:32;13.70;56.84
69944;DHT22;57257;48.408;-4.498;2024-03-02T12:01:58;13.74;56.78
69944;DHT22;57257;48.408;-4.498;2024-03-02T12:04:24;13.70;56.66
69944;DHT22;57257;48.408;-4.498;2024-03-02T12:07:08;13.59;56.25
69944;DHT22;57257;48.408;-4.498;2024-03-02T12:09:34;13.60;56.59
69944;DHT22;57257;48.408;-4.498;2024-03-02T12:12:08;13.72;57.02
69944;DHT22;57257;48.408;-4.498;2024-03-02T12:14:37;13.84;57.17
69944;DHT22;57257;48.408;-4.498;2024-03-02T12:17:04;13.91;56.59
69944;DHT22;57257;48.408;-4.498;2024-03-02T12:19:30;13.87;56.51
69944;DHT22;57257;48.408;-4.498;2024-03-02T12:21:57;13.83;56.06
69944;DHT22;57257;48.408;-4.498;2024-03-02T12:24:23;13.82;55.12
69944;DHT22;57257;48.408;-4.498;2024-03-02T12:26:50;13.77;54.96
69944;DHT22;57257;48.408;-4.498;2024-03-02T12:29:16;13.70;54.84
69944;DHT22;57257;48.408;-4.498;2024-03-02T12:31:44;13.65;54.91
69944;DHT22;57257;48.408;-4.498;2024-03-02T12:34:17;13.63;54.93
69944;DHT22;57257;48.408;-4.498;2024-03-02T12:36:42;13.67;55.30
69944;DHT22;57257;48.408;-4.498;2024-03-02T12:39:08;13.76;55.82
69944;DHT22;57257;48.408;-4.498;2024-03-02T12:41:38;13.93;55.88
69944;DHT22;57257;48.408;-4.498;2024-03-02T12:44:07;14.10;55.56
69944;DHT22;57257;48.408;-4.498;2024-03-02T12:46:32;14.14;55.65
69944;DHT22;57257;48.408;-4.498;2024-03-02T12:49:16;14.02;55.69
69944;DHT22;57257;48.408;-4.498;2024-03-02T12:51:42;13.90;55.61
69944;DHT22;57257;48.408;-4.498;2024-03-02T12:54:08;13.67;55.96
69944;DHT22;57257;48.408;-4.498;2024-03-02T12:56:35;13.55;55.84
69944;DHT22;57257;48.408;-4.498;2024-03-02T12:59:01;13.39;56.44
69944;DHT22;57257;48.408;-4.498;2024-03-02T13:01:26;13.34;56.87
69944;DHT22;57257;48.408;-4.498;2024-03-02T13:03:55;13.23;56.73
69944;DHT22;57257;48.408;-4.498;2024-03-02T13:06:24;13.11;56.71
69944;DHT22;57257;48.408;-4.498;2024-03-02T13:08:49;13.02;57.40
69944;DHT22;57257;48.408;-4.498;2024-03-02T13:11:16;12.99;57.53
69944;DHT22;57257;48.408;-4.498;2024-03-02T13:13:41;13.02;58.12
69944;DHT22;57257;48.408;-4.498;2024-03-02T13:16:10;13.12;57.90
69944;DHT22;57257;48.408;-4.498;2024-03-02T13:18:36;13.28;57.56
69944;DHT22;57257;48.408;-4.498;2024-03-02T13:21:03;13.46;57.98
69944;DHT22;57257;48.408;-4.498;2024-03-02T13:23:29;13.69;58.26
69944;DHT22;57257;48.408;-4.498;2024-03-02T13:25:59;13.83;57.71
69944;DHT22;57257;48.408;-4.498;2024-03-02T13:28:27;13.97;56.45
69944;DHT22;57257;48.408;-4.498;2024-03-02T13:30:53;13.94;56.12
69944;DHT22;57257;48.408;-4.498;2024-03-02T13:33:19;13.90;55.64
69944;DHT22;57257;48.408;-4.498;2024-03-02T13:35:50;13.87;56.40
69944;DHT22;57257;48.408;-4.498;2024-03-02T13:38:19;13.89;56.93
69944;DHT22;57257;48.408;-4.498;2024-03-02T13:40:45;13.89;56.51
69944;DHT22;57257;48.408;-4.498;2024-03-02T13:43:11;13.74;56.90
69944;DHT22;57257;48.408;-4.498;2024-03-02T13:45:37;13.60;57.52
69944;DHT22;57257;48.408;-4.498;2024-03-02T13:48:03;13.59;57.86
69944;DHT22;57257;48.408;-4.498;2024-03-02T13:50:28;13.62;56.69
69944;DHT22;57257;48.408;-4.498;2024-03-02T13:52:55;13.74;56.33
69944;DHT22;57257;48.408;-4.498;2024-03-02T13:55:20;13.87;56.41
69944;DHT22;57257;48.408;-4.498;2024-03-02T13:57:46;13.84;56.26
69944;DHT22;57257;48.408;-4.498;2024-03-02T14:00:13;13.67;57.78
69944;DHT22;57257;48.408;-4.498;2024-03-02T14:02:39;13.50;58.02
69944;DHT22;57257;48.408;-4.498;2024-03-02T14:05:05;13.45;58.26
69944;DHT22;57257;48.408;-4.498;2024-03-02T14:07:30;13.49;58.59
69944;DHT22;57257;48.408;-4.498;2024-03-02T14:09:56;13.72;59.08
69944;DHT22;57257;48.408;-4.498;2024-03-02T14:12:22;13.73;57.72
69944;DHT22;57257;48.408;-4.498;2024-03-02T14:14:47;13.79;57.22
69944;DHT22;57257;48.408;-4.498;2024-03-02T14:17:16;14.06;58.13
69944;DHT22;57257;48.408;-4.498;2024-03-02T14:19:41;14.41;57.28
69944;DHT22;57257;48.408;-4.498;2024-03-02T14:22:06;14.55;57.10
69944;DHT22;57257;48.408;-4.498;2024-03-02T14:24:32;14.44;55.99
69944;DHT22;57257;48.408;-4.498;2024-03-02T14:26:57;14.12;54.94
69944;DHT22;57257;48.408;-4.498;2024-03-02T14:29:26;13.82;56.71
69944;DHT22;57257;48.408;-4.498;2024-03-02T14:31:52;13.93;57.90
69944;DHT22;57257;48.408;-4.498;2024-03-02T14:34:17;14.30;57.66
69944;DHT22;57257;48.408;-4.498;2024-03-02T14:36:43;14.98;56.92
69944;DHT22;57257;48.408;-4.498;2024-03-02T14:39:10;15.91;55.19
69944;DHT22;57257;48.408;-4.498;2024-03-02T14:41:36;16.61;53.31
69944;DHT22;57257;48.408;-4.498;2024-03-02T14:44:01;16.58;52.06
69944;DHT22;57257;48.408;-4.498;2024-03-02T14:46:27;16.61;51.95
69944;DHT22;57257;48.408;-4.498;2024-03-02T14:48:52;16.55;51.18
69944;DHT22;57257;48.408;-4.498;2024-03-02T14:51:18;16.24;51.73
69944;DHT22;57257;48.408;-4.498;2024-03-02T14:53:43;16.00;50.07
69944;DHT22;57257;48.408;-4.498;2024-03-02T14:56:09;15.86;51.62
69944;DHT22;57257;48.408;-4.498;2024-03-02T14:58:34;15.94;51.30
69944;DHT22;57257;48.408;-4.498;2024-03-02T15:01:04;16.04;51.05
69944;DHT22;57257;48.408;-4.498;2024-03-02T15:03:31;16.59;51.94
69944;DHT22;57257;48.408;-4.498;2024-03-02T15:05:56;17.62;51.21
69944;DHT22;57257;48.408;-4.498;2024-03-02T15:08:22;17.97;49.35
69944;DHT22;57257;48.408;-4.498;2024-03-02T15:10:47;19.04;47.15
69944;DHT22;57257;48.408;-4.498;2024-03-02T15:13:13;20.33;45.79
69944;DHT22;57257;48.408;-4.498;2024-03-02T15:15:38;21.28;43.42
69944;DHT22;57257;48.408;-4.498;2024-03-02T15:18:04;22.25;43.04
69944;DHT22;57257;48.408;-4.498;2024-03-02T15:20:30;23.13;40.97
69944;DHT22;57257;48.408;-4.498;2024-03-02T15:22:55;23.13;41.65
69944;DHT22;57257;48.408;-4.498;2024-03-02T15:25:20;22.25;40.36
69944;DHT22;57257;48.408;-4.498;2024-03-02T15:27:46;21.23;39.94